Login to view products.  
Thursday, February 22, 2018 (02:30 UTC)
Abu Dhabi International Airport
Last Updated: 22-Feb-2018 (02:30Z)
Wind Dir/Speed: ESE at 03 kt
Temperature: 17.0°C
Rel. Humidity: 86 %
Pressure: 1010.8 hPa
Visibility: 7000 m
ACTUALS
  • METAR OMAA 220200Z 11003KT 6000 NSC 17/15 Q1010 TEMPO 4000 HZ
  • TAF OMAA 212300Z 2200/2306 11003KT 8000 NSC PROB40 2201/2204 4000 HZ PROB30 TEMPO 2201/2203 1000 BCFG BKN009 BECMG 2209/2211 33010KT BECMG 2217/2219 08004KT=